sensor_id;sensor_type;location;lat;lon;timestamp;pressure;altitude;pressure_sealevel;temperature;humidity
43420;BME280;29017;51.514;-0.178;2022-08-01T00:00:44;101396.38;;;22.27;71.93
43420;BME280;29017;51.514;-0.178;2022-08-01T00:03:11;101391.63;;;22.29;71.87
43420;BME280;29017;51.514;-0.178;2022-08-01T00:05:38;101388.94;;;22.29;71.33
43420;BME280;29017;51.514;-0.178;2022-08-01T00:08:05;101391.84;;;22.28;71.67
43420;BME280;29017;51.514;-0.178;2022-08-01T00:10:33;101386.47;;;22.28;71.55
43420;BME280;29017;51.514;-0.178;2022-08-01T00:13:01;101391.03;;;22.27;71.68
43420;BME280;29017;51.514;-0.178;2022-08-01T00:15:29;101392.06;;;22.26;71.88
43420;BME280;29017;51.514;-0.178;2022-08-01T00:17:56;101393.09;;;22.25;71.49
43420;BME280;29017;51.514;-0.178;2022-08-01T00:20:23;101388.78;;;22.24;71.70
43420;BME280;29017;51.514;-0.178;2022-08-01T00:22:50;101391.06;;;22.21;70.83
43420;BME280;29017;51.514;-0.178;2022-08-01T00:25:17;101391.88;;;22.21;70.98
43420;BME280;29017;51.514;-0.178;2022-08-01T00:27:45;101383.84;;;22.21;71.31
43420;BME280;29017;51.514;-0.178;2022-08-01T00:30:13;101382.78;;;22.22;71.39
43420;BME280;29017;51.514;-0.178;2022-08-01T00:32:43;101379.28;;;22.22;71.48
43420;BME280;29017;51.514;-0.178;2022-08-01T00:35:11;101385.47;;;22.22;71.57
43420;BME280;29017;51.514;-0.178;2022-08-01T00:37:38;101385.47;;;22.22;70.90
43420;BME280;29017;51.514;-0.178;2022-08-01T00:40:06;101391.28;;;22.19;70.86
43420;BME280;29017;51.514;-0.178;2022-08-01T00:42:34;101389.84;;;22.16;70.58
43420;BME280;29017;51.514;-0.178;2022-08-01T00:45:09;101386.34;;;22.16;70.64
43420;BME280;29017;51.514;-0.178;2022-08-01T00:47:36;101391.09;;;22.14;69.98
43420;BME280;29017;51.514;-0.178;2022-08-01T00:50:04;101389.84;;;22.16;70.25
43420;BME280;29017;51.514;-0.178;2022-08-01T00:52:32;101386.13;;;22.17;69.66
43420;BME280;29017;51.514;-0.178;2022-08-01T00:55:00;101385.91;;;22.19;69.26
43420;BME280;29017;51.514;-0.178;2022-08-01T00:57:28;101384.28;;;22.18;68.92
43420;BME280;29017;51.514;-0.178;2022-08-01T01:00:15;101385.09;;;22.18;69.21
43420;BME280;29017;51.514;-0.178;2022-08-01T01:02:42;101380.56;;;22.19;69.08
43420;BME280;29017;51.514;-0.178;2022-08-01T01:05:10;101386.94;;;22.18;68.89
43420;BME280;29017;51.514;-0.178;2022-08-01T01:10:22;101398.72;;;22.17;67.61
43420;BME280;29017;51.514;-0.178;2022-08-01T01:12:59;101403.03;;;22.18;67.79
43420;BME280;29017;51.514;-0.178;2022-08-01T01:15:55;101404.69;;;22.19;67.46
43420;BME280;29017;51.514;-0.178;2022-08-01T01:22:13;101408.81;;;22.15;69.48
43420;BME280;29017;51.514;-0.178;2022-08-01T01:25:25;101407.59;;;22.11;70.11
43420;BME280;29017;51.514;-0.178;2022-08-01T01:28:20;101407.84;;;22.09;70.21
43420;BME280;29017;51.514;-0.178;2022-08-01T01:30:55;101409.91;;;22.07;70.72
43420;BME280;29017;51.514;-0.178;2022-08-01T01:33:26;101406.84;;;22.04;70.82
43420;BME280;29017;51.514;-0.178;2022-08-01T01:36:01;101396.97;;;21.98;71.00
43420;BME280;29017;51.514;-0.178;2022-08-01T01:38:40;101403.34;;;21.90;71.56
43420;BME280;29017;51.514;-0.178;2022-08-01T01:41:11;101413.06;;;21.85;72.33
43420;BME280;29017;51.514;-0.178;2022-08-01T01:43:40;101400.28;;;21.80;72.02
43420;BME280;29017;51.514;-0.178;2022-08-01T01:46:11;101398.88;;;21.77;72.77
43420;BME280;29017;51.514;-0.178;2022-08-01T01:48:39;101400.34;;;21.73;72.34
43420;BME280;29017;51.514;-0.178;2022-08-01T01:51:11;101406.09;;;21.70;72.52
43420;BME280;29017;51.514;-0.178;2022-08-01T01:53:41;101400.16;;;21.68;72.33
43420;BME280;29017;51.514;-0.178;2022-08-01T01:56:09;101395.81;;;21.67;72.63
43420;BME280;29017;51.514;-0.178;2022-08-01T01:58:39;101399.31;;;21.68;72.75
43420;BME280;29017;51.514;-0.178;2022-08-01T02:01:07;101398.50;;;21.67;72.75
43420;BME280;29017;51.514;-0.178;2022-08-01T02:03:42;101396.84;;;21.66;72.53
43420;BME280;29017;51.514;-0.178;2022-08-01T02:06:13;101402.66;;;21.63;72.46
43420;BME280;29017;51.514;-0.178;2022-08-01T02:08:42;101404.91;;;21.60;72.27
43420;BME280;29017;51.514;-0.178;2022-08-01T02:11:10;101392.13;;;21.55;72.96
43420;BME280;29017;51.514;-0.178;2022-08-01T02:14:01;101394.22;;;21.53;72.86
43420;BME280;29017;51.514;-0.178;2022-08-01T02:16:33;101397.09;;;21.52;72.72
43420;BME280;29017;51.514;-0.178;2022-08-01T02:19:02;101394.44;;;21.52;73.11
43420;BME280;29017;51.514;-0.178;2022-08-01T02:21:51;101395.25;;;21.52;72.83
43420;BME280;29017;51.514;-0.178;2022-08-01T02:24:24;101388.25;;;21.51;73.00
43420;BME280;29017;51.514;-0.178;2022-08-01T02:27:00;101394.63;;;21.50;73.21
43420;BME280;29017;51.514;-0.178;2022-08-01T02:29:37;101389.47;;;21.49;73.11
43420;BME280;29017;51.514;-0.178;2022-08-01T02:32:06;101393.81;;;21.50;73.27
43420;BME280;29017;51.514;-0.178;2022-08-01T02:34:35;101386.59;;;21.50;73.80
43420;BME280;29017;51.514;-0.178;2022-08-01T02:37:03;101384.34;;;21.47;73.25
43420;BME280;29017;51.514;-0.178;2022-08-01T02:39:31;101381.44;;;21.49;73.26
43420;BME280;29017;51.514;-0.178;2022-08-01T02:42:01;101378.56;;;21.44;73.81
43420;BME280;29017;51.514;-0.178;2022-08-01T02:44:33;101383.34;;;21.42;73.44
43420;BME280;29017;51.514;-0.178;2022-08-01T02:47:03;101375.69;;;21.39;73.91
43420;BME280;29017;51.514;-0.178;2022-08-01T02:49:36;101371.81;;;21.34;74.18
43420;BME280;29017;51.514;-0.178;2022-08-01T02:52:09;101368.72;;;21.31;74.43
43420;BME280;29017;51.514;-0.178;2022-08-01T02:54:40;101360.06;;;21.29;74.00
43420;BME280;29017;51.514;-0.178;2022-08-01T02:57:09;101362.56;;;21.30;73.51
43420;BME280;29017;51.514;-0.178;2022-08-01T02:59:39;101359.88;;;21.30;73.60
43420;BME280;29017;51.514;-0.178;2022-08-01T03:02:10;101369.75;;;21.30;73.49
43420;BME280;29017;51.514;-0.178;2022-08-01T03:04:40;101367.06;;;21.30;73.72
43420;BME280;29017;51.514;-0.178;2022-08-01T03:07:09;101365.22;;;21.30;73.75
43420;BME280;29017;51.514;-0.178;2022-08-01T03:09:42;101369.56;;;21.31;73.79
43420;BME280;29017;51.514;-0.178;2022-08-01T03:12:17;101367.47;;;21.33;74.05
43420;BME280;29017;51.514;-0.178;2022-08-01T03:14:46;101365.22;;;21.30;73.65
43420;BME280;29017;51.514;-0.178;2022-08-01T03:17:16;101369.16;;;21.28;73.38
43420;BME280;29017;51.514;-0.178;2022-08-01T03:19:45;101364.84;;;21.27;73.68
43420;BME280;29017;51.514;-0.178;2022-08-01T03:22:14;101362.34;;;21.25;73.40
43420;BME280;29017;51.514;-0.178;2022-08-01T03:24:44;101358.03;;;21.24;73.44
43420;BME280;29017;51.514;-0.178;2022-08-01T03:27:17;101364.84;;;21.20;73.48
43420;BME280;29017;51.514;-0.178;2022-08-01T03:29:47;101372.25;;;21.18;73.91
43420;BME280;29017;51.514;-0.178;2022-08-01T03:32:17;101377.84;;;21.17;74.51
43420;BME280;29017;51.514;-0.178;2022-08-01T03:34:45;101378.22;;;21.14;74.23
43420;BME280;29017;51.514;-0.178;2022-08-01T03:37:21;101378.63;;;21.11;74.03
43420;BME280;29017;51.514;-0.178;2022-08-01T03:40:10;101377.81;;;21.10;74.33
43420;BME280;29017;51.514;-0.178;2022-08-01T03:42:45;101380.91;;;21.07;74.40
43420;BME280;29017;51.514;-0.178;2022-08-01T03:45:25;101379.88;;;21.02;74.20
43420;BME280;29017;51.514;-0.178;2022-08-01T03:48:02;101384.00;;;20.98;74.76
43420;BME280;29017;51.514;-0.178;2022-08-01T03:50:33;101379.88;;;20.95;74.86
43420;BME280;29017;51.514;-0.178;2022-08-01T03:53:02;101389.94;;;20.93;74.99
43420;BME280;29017;51.514;-0.178;2022-08-01T03:55:30;101375.97;;;20.91;75.00
43420;BME280;29017;51.514;-0.178;2022-08-01T03:57:59;101383.19;;;20.90;75.04
43420;BME280;29017;51.514;-0.178;2022-08-01T04:00:27;101375.78;;;20.92;75.13
43420;BME280;29017;51.514;-0.178;2022-08-01T04:02:55;101387.50;;;20.91;74.40
43420;BME280;29017;51.514;-0.178;2022-08-01T04:05:26;101377.63;;;20.92;74.85
43420;BME280;29017;51.514;-0.178;2022-08-01T04:07:53;101388.09;;;20.93;74.87
43420;BME280;29017;51.514;-0.178;2022-08-01T04:10:24;101380.91;;;20.94;74.50
43420;BME280;29017;51.514;-0.178;2022-08-01T04:12:51;101379.25;;;20.93;74.88
43420;BME280;29017;51.514;-0.178;2022-08-01T04:15:19;101376.81;;;20.91;74.94
43420;BME280;29017;51.514;-0.178;2022-08-01T04:17:47;101371.44;;;20.91;74.75
43420;BME280;29017;51.514;-0.178;2022-08-01T04:20:14;101367.13;;;20.90;74.59
43420;BME280;29017;51.514;-0.178;2022-08-01T04:22:46;101368.16;;;20.89;75.23
43420;BME280;29017;51.514;-0.178;2022-08-01T04:25:36;101380.72;;;20.82;75.34
43420;BME280;29017;51.514;-0.178;2022-08-01T04:28:07;101374.53;;;20.75;75.79
43420;BME280;29017;51.514;-0.178;2022-08-01T04:30:43;101373.09;;;20.66;76.10
43420;BME280;29017;51.514;-0.178;2022-08-01T04:33:15;101382.53;;;20.62;76.24
43420;BME280;29017;51.514;-0.178;2022-08-01T04:35:45;101376.78;;;20.59;76.30
43420;BME280;29017;51.514;-0.178;2022-08-01T04:38:32;101373.09;;;20.60;76.99
43420;BME280;29017;51.514;-0.178;2022-08-01T04:41:01;101370.84;;;20.57;76.57
43420;BME280;29017;51.514;-0.178;2022-08-01T04:43:34;101376.78;;;20.59;76.64
43420;BME280;29017;51.514;-0.178;2022-08-01T04:46:02;101379.25;;;20.60;76.83
43420;BME280;29017;51.514;-0.178;2022-08-01T04:48:32;101382.34;;;20.64;76.61
43420;BME280;29017;51.514;-0.178;2022-08-01T04:51:00;101385.66;;;20.66;76.08
43420;BME280;29017;51.514;-0.178;2022-08-01T04:53:27;101393.69;;;20.66;75.95
43420;BME280;29017;51.514;-0.178;2022-08-01T04:55:54;101394.69;;;20.65;76.47
43420;BME280;29017;51.514;-0.178;2022-08-01T04:58:22;101397.38;;;20.65;76.10
43420;BME280;29017;51.514;-0.178;2022-08-01T05:00:49;101394.28;;;20.68;76.64
43420;BME280;29017;51.514;-0.178;2022-08-01T05:03:16;101396.94;;;20.68;76.20
43420;BME280;29017;51.514;-0.178;2022-08-01T05:05:44;101403.75;;;20.70;76.01
43420;BME280;29017;51.514;-0.178;2022-08-01T05:08:11;101401.91;;;20.71;76.28
43420;BME280;29017;51.514;-0.178;2022-08-01T05:10:41;101413.63;;;20.70;75.69
43420;BME280;29017;51.514;-0.178;2022-08-01T05:13:08;101407.44;;;20.69;76.03
43420;BME280;29017;51.514;-0.178;2022-08-01T05:15:35;101410.31;;;20.68;76.44
43420;BME280;29017;51.514;-0.178;2022-08-01T05:18:05;101410.75;;;20.65;75.95
43420;BME280;29017;51.514;-0.178;2022-08-01T05:20:34;101416.09;;;20.65;76.79
43420;BME280;29017;51.514;-0.178;2022-08-01T05:23:01;101420.63;;;20.64;76.39
43420;BME280;29017;51.514;-0.178;2022-08-01T05:25:29;101420.81;;;20.63;76.51
43420;BME280;29017;51.514;-0.178;2022-08-01T05:28:15;101416.72;;;20.60;76.37
43420;BME280;29017;51.514;-0.178;2022-08-01T05:30:45;101418.16;;;20.56;76.90
43420;BME280;29017;51.514;-0.178;2022-08-01T05:33:11;101419.34;;;20.47;77.17
43420;BME280;29017;51.514;-0.178;2022-08-01T05:35:38;101407.03;;;20.46;77.20
43420;BME280;29017;51.514;-0.178;2022-08-01T05:38:14;101415.47;;;20.49;77.73
43420;BME280;29017;51.514;-0.178;2022-08-01T05:40:41;101411.75;;;20.51;77.13
43420;BME280;29017;51.514;-0.178;2022-08-01T05:43:08;101410.75;;;20.52;76.95
43420;BME280;29017;51.514;-0.178;2022-08-01T05:45:35;101404.16;;;20.54;77.13
43420;BME280;29017;51.514;-0.178;2022-08-01T05:48:02;101409.06;;;20.57;77.21
43420;BME280;29017;51.514;-0.178;2022-08-01T05:50:30;101409.72;;;20.59;77.26
43420;BME280;29017;51.514;-0.178;2022-08-01T05:52:57;101409.91;;;20.64;76.97
43420;BME280;29017;51.514;-0.178;2022-08-01T05:55:24;101415.06;;;20.66;76.86
43420;BME280;29017;51.514;-0.178;2022-08-01T05:57:51;101419.41;;;20.67;76.62
43420;BME280;29017;51.514;-0.178;2022-08-01T06:00:17;101418.13;;;20.63;76.96
43420;BME280;29017;51.514;-0.178;2022-08-01T06:02:44;101419.97;;;20.62;76.98
43420;BME280;29017;51.514;-0.178;2022-08-01T06:05:11;101423.28;;;20.64;76.96
43420;BME280;29017;51.514;-0.178;2022-08-01T06:07:39;101428.44;;;20.59;77.05
43420;BME280;29017;51.514;-0.178;2022-08-01T06:10:07;101425.56;;;20.61;77.44
43420;BME280;29017;51.514;-0.178;2022-08-01T06:12:35;101425.13;;;20.64;77.82
43420;BME280;29017;51.514;-0.178;2022-08-01T06:15:04;101413.41;;;20.65;77.07
43420;BME280;29017;51.514;-0.178;2022-08-01T06:17:31;101419.59;;;20.65;77.06
43420;BME280;29017;51.514;-0.178;2022-08-01T06:19:58;101417.75;;;20.66;76.69
43420;BME280;29017;51.514;-0.178;2022-08-01T06:22:26;101421.88;;;20.62;77.23
43420;BME280;29017;51.514;-0.178;2022-08-01T06:24:53;101416.50;;;20.62;77.60
43420;BME280;29017;51.514;-0.178;2022-08-01T06:27:20;101408.50;;;20.62;77.02
43420;BME280;29017;51.514;-0.178;2022-08-01T06:29:48;101419.59;;;20.65;77.44
43420;BME280;29017;51.514;-0.178;2022-08-01T06:32:20;101419.19;;;20.68;77.58
43420;BME280;29017;51.514;-0.178;2022-08-01T06:34:53;101421.22;;;20.73;77.36
43420;BME280;29017;51.514;-0.178;2022-08-01T06:37:22;101433.19;;;20.77;77.19
43420;BME280;29017;51.514;-0.178;2022-08-01T06:39:49;101424.56;;;20.81;76.96
43420;BME280;29017;51.514;-0.178;2022-08-01T06:42:16;101425.78;;;20.85;76.92
43420;BME280;29017;51.514;-0.178;2022-08-01T06:44:44;101427.44;;;20.86;76.89
43420;BME280;29017;51.514;-0.178;2022-08-01T06:47:11;101423.50;;;20.89;76.78
43420;BME280;29017;51.514;-0.178;2022-08-01T06:49:38;101431.53;;;20.89;76.48
43420;BME280;29017;51.514;-0.178;2022-08-01T06:52:05;101432.38;;;20.89;76.86
43420;BME280;29017;51.514;-0.178;2022-08-01T06:54:33;101434.63;;;20.86;76.44
43420;BME280;29017;51.514;-0.178;2022-08-01T06:57:06;101432.34;;;20.83;76.81
43420;BME280;29017;51.514;-0.178;2022-08-01T06:59:33;101437.31;;;20.79;76.64
43420;BME280;29017;51.514;-0.178;2022-08-01T07:02:00;101435.03;;;20.76;77.39
43420;BME280;29017;51.514;-0.178;2022-08-01T07:04:28;101437.09;;;20.74;77.14
43420;BME280;29017;51.514;-0.178;2022-08-01T07:06:55;101437.91;;;20.68;77.61
43420;BME280;29017;51.514;-0.178;2022-08-01T07:09:22;101431.72;;;20.68;77.91
43420;BME280;29017;51.514;-0.178;2022-08-01T07:11:49;101432.78;;;20.67;77.64
43420;BME280;29017;51.514;-0.178;2022-08-01T07:14:17;101429.03;;;20.68;77.44
43420;BME280;29017;51.514;-0.178;2022-08-01T07:16:43;101433.00;;;20.72;77.65
43420;BME280;29017;51.514;-0.178;2022-08-01T07:19:11;101435.44;;;20.73;77.75
43420;BME280;29017;51.514;-0.178;2022-08-01T07:21:39;101441.41;;;20.75;77.36
43420;BME280;29017;51.514;-0.178;2022-08-01T07:24:08;101443.47;;;20.80;76.69
43420;BME280;29017;51.514;-0.178;2022-08-01T07:26:44;101445.13;;;20.81;77.42
43420;BME280;29017;51.514;-0.178;2022-08-01T07:29:21;101449.03;;;20.78;77.50
43420;BME280;29017;51.514;-0.178;2022-08-01T07:31:48;101446.16;;;20.80;77.28
43420;BME280;29017;51.514;-0.178;2022-08-01T07:34:15;101450.69;;;20.79;77.03
43420;BME280;29017;51.514;-0.178;2022-08-01T07:36:42;101444.31;;;20.80;77.50
43420;BME280;29017;51.514;-0.178;2022-08-01T07:39:09;101445.31;;;20.79;77.57
43420;BME280;29017;51.514;-0.178;2022-08-01T07:41:35;101457.69;;;20.80;77.00
43420;BME280;29017;51.514;-0.178;2022-08-01T07:44:22;101451.31;;;20.81;77.48
43420;BME280;29017;51.514;-0.178;2022-08-01T07:46:53;101453.34;;;20.79;77.14
43420;BME280;29017;51.514;-0.178;2022-08-01T07:49:20;101455.63;;;20.76;77.26
43420;BME280;29017;51.514;-0.178;2022-08-01T07:51:48;101456.00;;;20.73;77.41
43420;BME280;29017;51.514;-0.178;2022-08-01T07:54:31;101449.84;;;20.79;78.82
43420;BME280;29017;51.514;-0.178;2022-08-01T07:57:06;101452.72;;;20.84;78.69
43420;BME280;29017;51.514;-0.178;2022-08-01T07:59:33;101452.13;;;20.88;77.45
43420;BME280;29017;51.514;-0.178;2022-08-01T08:02:00;101459.53;;;20.93;77.46
43420;BME280;29017;51.514;-0.178;2022-08-01T08:04:27;101462.41;;;20.98;76.96
43420;BME280;29017;51.514;-0.178;2022-08-01T08:06:54;101458.09;;;21.04;76.78
43420;BME280;29017;51.514;-0.178;2022-08-01T08:09:22;101462.63;;;21.10;76.71
43420;BME280;29017;51.514;-0.178;2022-08-01T08:11:49;101456.50;;;21.16;76.07
43420;BME280;29017;51.514;-0.178;2022-08-01T08:14:16;101471.72;;;21.22;75.77
43420;BME280;29017;51.514;-0.178;2022-08-01T08:16:44;101467.19;;;21.29;75.83
43420;BME280;29017;51.514;-0.178;2022-08-01T08:19:11;101465.31;;;21.36;76.35
43420;BME280;29017;51.514;-0.178;2022-08-01T08:21:38;101465.53;;;21.41;76.29
43420;BME280;29017;51.514;-0.178;2022-08-01T08:24:07;101461.59;;;21.44;75.38
43420;BME280;29017;51.514;-0.178;2022-08-01T08:26:56;101465.53;;;21.48;75.32
43420;BME280;29017;51.514;-0.178;2022-08-01T08:29:33;101467.16;;;21.49;75.17
43420;BME280;29017;51.514;-0.178;2022-08-01T08:32:00;101468.78;;;21.50;75.11
43420;BME280;29017;51.514;-0.178;2022-08-01T08:34:28;101469.03;;;21.48;74.94
43420;BME280;29017;51.514;-0.178;2022-08-01T08:36:56;101466.34;;;21.48;74.31
43420;BME280;29017;51.514;-0.178;2022-08-01T08:39:31;101466.34;;;21.48;74.47
43420;BME280;29017;51.514;-0.178;2022-08-01T08:42:09;101463.88;;;21.47;75.09
43420;BME280;29017;51.514;-0.178;2022-08-01T08:44:36;101460.75;;;21.50;75.06
43420;BME280;29017;51.514;-0.178;2022-08-01T08:47:11;101467.16;;;21.49;74.31
43420;BME280;29017;51.514;-0.178;2022-08-01T08:49:46;101466.75;;;21.52;74.33
43420;BME280;29017;51.514;-0.178;2022-08-01T08:52:15;101469.44;;;21.52;74.50
43420;BME280;29017;51.514;-0.178;2022-08-01T08:54:45;101453.16;;;21.53;74.54
43420;BME280;29017;51.514;-0.178;2022-08-01T08:57:14;101458.09;;;21.56;74.34
43420;BME280;29017;51.514;-0.178;2022-08-01T08:59:43;101458.91;;;21.57;73.90
43420;BME280;29017;51.514;-0.178;2022-08-01T09:02:10;101457.88;;;21.58;73.82
43420;BME280;29017;51.514;-0.178;2022-08-01T09:04:38;101456.81;;;21.59;74.11
43420;BME280;29017;51.514;-0.178;2022-08-01T09:07:06;101463.63;;;21.61;74.33
43420;BME280;29017;51.514;-0.178;2022-08-01T09:09:37;101457.03;;;21.64;74.13
43420;BME280;29017;51.514;-0.178;2022-08-01T09:12:07;101454.97;;;21.66;74.09
43420;BME280;29017;51.514;-0.178;2022-08-01T09:14:44;101459.09;;;21.68;74.09
43420;BME280;29017;51.514;-0.178;2022-08-01T09:17:12;101459.50;;;21.72;73.68
43420;BME280;29017;51.514;-0.178;2022-08-01T09:19:40;101453.09;;;21.73;74.73
43420;BME280;29017;51.514;-0.178;2022-08-01T09:22:12;101465.88;;;21.77;74.16
43420;BME280;29017;51.514;-0.178;2022-08-01T09:24:40;101462.94;;;21.79;73.46
43420;BME280;29017;51.514;-0.178;2022-08-01T09:27:20;101474.09;;;21.83;73.33
43420;BME280;29017;51.514;-0.178;2022-08-01T09:29:52;101473.25;;;21.89;72.71
43420;BME280;29017;51.514;-0.178;2022-08-01T09:32:27;101474.69;;;21.91;72.49
43420;BME280;29017;51.514;-0.178;2022-08-01T09:35:31;101472.22;;;21.96;72.90
43420;BME280;29017;51.514;-0.178;2022-08-01T09:38:12;101470.16;;;21.98;71.35
43420;BME280;29017;51.514;-0.178;2022-08-01T09:40:49;101473.03;;;22.03;71.02
43420;BME280;29017;51.514;-0.178;2022-08-01T09:43:17;101474.25;;;22.07;71.27
43420;BME280;29017;51.514;-0.178;2022-08-01T09:45:46;101469.06;;;22.12;69.90
43420;BME280;29017;51.514;-0.178;2022-08-01T09:48:16;101469.88;;;22.20;69.46
43420;BME280;29017;51.514;-0.178;2022-08-01T09:50:51;101480.56;;;22.26;69.69
43420;BME280;29017;51.514;-0.178;2022-08-01T09:53:20;101481.56;;;22.32;68.81
43420;BME280;29017;51.514;-0.178;2022-08-01T09:56:08;101482.78;;;22.36;68.50
43420;BME280;29017;51.514;-0.178;2022-08-01T09:58:53;101473.69;;;22.37;67.29
43420;BME280;29017;51.514;-0.178;2022-08-01T10:01:27;101475.34;;;22.38;66.60
43420;BME280;29017;51.514;-0.178;2022-08-01T10:04:09;101470.97;;;22.43;65.99
43420;BME280;29017;51.514;-0.178;2022-08-01T10:06:38;101468.28;;;22.50;67.09
43420;BME280;29017;51.514;-0.178;2022-08-01T10:09:07;101466.78;;;22.54;66.21
43420;BME280;29017;51.514;-0.178;2022-08-01T10:11:36;101477.91;;;22.57;64.94
43420;BME280;29017;51.514;-0.178;2022-08-01T10:14:06;101475.84;;;22.59;64.84
43420;BME280;29017;51.514;-0.178;2022-08-01T10:16:35;101476.66;;;22.60;63.88
43420;BME280;29017;51.514;-0.178;2022-08-01T10:19:07;101480.59;;;22.57;64.26
43420;BME280;29017;51.514;-0.178;2022-08-01T10:21:40;101485.97;;;22.57;64.71
43420;BME280;29017;51.514;-0.178;2022-08-01T10:24:26;101479.78;;;22.57;64.18
43420;BME280;29017;51.514;-0.178;2022-08-01T10:27:09;101472.34;;;22.59;64.31
43420;BME280;29017;51.514;-0.178;2022-08-01T10:29:59;101468.63;;;22.60;64.73
43420;BME280;29017;51.514;-0.178;2022-08-01T10:32:49;101470.47;;;22.59;63.99
43420;BME280;29017;51.514;-0.178;2022-08-01T10:35:21;101462.19;;;22.61;63.96
43420;BME280;29017;51.514;-0.178;2022-08-01T10:38:08;101460.91;;;22.70;64.96
43420;BME280;29017;51.514;-0.178;2022-08-01T10:40:39;101466.41;;;22.82;64.54
43420;BME280;29017;51.514;-0.178;2022-08-01T10:43:09;101468.19;;;22.94;64.73
43420;BME280;29017;51.514;-0.178;2022-08-01T10:45:36;101464.66;;;23.00;64.42
43420;BME280;29017;51.514;-0.178;2022-08-01T10:48:11;101463.16;;;23.05;63.88
43420;BME280;29017;51.514;-0.178;2022-08-01T10:50:48;101459.81;;;23.09;64.35
43420;BME280;29017;51.514;-0.178;2022-08-01T10:53:23;101464.34;;;23.09;64.08
43420;BME280;29017;51.514;-0.178;2022-08-01T10:56:07;101450.31;;;23.07;64.26
43420;BME280;29017;51.514;-0.178;2022-08-01T10:58:42;101448.25;;;23.09;63.71
43420;BME280;29017;51.514;-0.178;2022-08-01T11:01:20;101455.63;;;23.13;63.92
43420;BME280;29017;51.514;-0.178;2022-08-01T11:04:04;101446.72;;;23.19;63.39
43420;BME280;29017;51.514;-0.178;2022-08-01T11:09:24;101454.09;;;23.24;62.92
43420;BME280;29017;51.514;-0.178;2022-08-01T11:12:10;101442.31;;;23.25;63.69
43420;BME280;29017;51.514;-0.178;2022-08-01T11:17:45;101441.50;;;23.24;63.01
43420;BME280;29017;51.514;-0.178;2022-08-01T11:28:27;101433.88;;;23.21;62.26
43420;BME280;29017;51.514;-0.178;2022-08-01T11:41:25;101423.75;;;23.66;61.54
43420;BME280;29017;51.514;-0.178;2022-08-01T11:44:08;101430.22;;;23.77;60.92
43420;BME280;29017;51.514;-0.178;2022-08-01T11:47:08;101422.22;;;23.88;61.73
43420;BME280;29017;51.514;-0.178;2022-08-01T11:52:19;101416.06;;;24.00;60.62
43420;BME280;29017;51.514;-0.178;2022-08-01T11:54:57;101412.34;;;24.01;60.59
43420;BME280;29017;51.514;-0.178;2022-08-01T11:57:28;101423.31;;;23.99;60.23
43420;BME280;29017;51.514;-0.178;2022-08-01T12:00:11;101417.13;;;23.99;60.41
43420;BME280;29017;51.514;-0.178;2022-08-01T12:02:43;101418.91;;;24.05;60.58
43420;BME280;29017;51.514;-0.178;2022-08-01T12:05:13;101418.34;;;24.14;60.13
43420;BME280;29017;51.514;-0.178;2022-08-01T12:07:42;101420.53;;;24.24;59.47
43420;BME280;29017;51.514;-0.178;2022-08-01T12:10:20;101417.06;;;24.35;59.49
43420;BME280;29017;51.514;-0.178;2022-08-01T12:12:55;101409.94;;;24.41;59.06
43420;BME280;29017;51.514;-0.178;2022-08-01T12:15:24;101420.84;;;24.46;59.21
43420;BME280;29017;51.514;-0.178;2022-08-01T12:17:56;101410.91;;;24.46;59.34
43420;BME280;29017;51.514;-0.178;2022-08-01T12:20:59;101415.59;;;24.51;58.81
43420;BME280;29017;51.514;-0.178;2022-08-01T12:23:28;101405.56;;;24.58;59.95
43420;BME280;29017;51.514;-0.178;2022-08-01T12:25:55;101404.63;;;24.64;58.64
43420;BME280;29017;51.514;-0.178;2022-08-01T12:28:23;101404.38;;;24.65;58.10
43420;BME280;29017;51.514;-0.178;2022-08-01T12:30:50;101398.19;;;24.65;58.19
43420;BME280;29017;51.514;-0.178;2022-08-01T12:33:18;101396.53;;;24.64;58.84
43420;BME280;29017;51.514;-0.178;2022-08-01T12:35:46;101403.44;;;24.60;59.80
43420;BME280;29017;51.514;-0.178;2022-08-01T12:38:16;101397.22;;;24.59;59.84
43420;BME280;29017;51.514;-0.178;2022-08-01T12:40:46;101393.72;;;24.59;59.15
43420;BME280;29017;51.514;-0.178;2022-08-01T12:43:23;101377.13;;;24.62;58.71
43420;BME280;29017;51.514;-0.178;2022-08-01T12:45:57;101387.19;;;24.66;58.26
43420;BME280;29017;51.514;-0.178;2022-08-01T12:48:25;101391.88;;;24.71;57.53
43420;BME280;29017;51.514;-0.178;2022-08-01T12:50:55;101393.03;;;24.75;57.00
43420;BME280;29017;51.514;-0.178;2022-08-01T12:53:25;101391.06;;;24.82;56.52
43420;BME280;29017;51.514;-0.178;2022-08-01T12:56:07;101392.25;;;24.86;56.31
43420;BME280;29017;51.514;-0.178;2022-08-01T12:58:34;101387.69;;;24.87;57.03
43420;BME280;29017;51.514;-0.178;2022-08-01T13:01:06;101383.97;;;24.88;56.85
43420;BME280;29017;51.514;-0.178;2022-08-01T13:03:34;101375.41;;;24.91;56.35
43420;BME280;29017;51.514;-0.178;2022-08-01T13:06:10;101370.97;;;24.96;57.20
43420;BME280;29017;51.514;-0.178;2022-08-01T13:08:37;101370.25;;;25.01;57.16
43420;BME280;29017;51.514;-0.178;2022-08-01T13:11:12;101371.19;;;25.06;56.42
43420;BME280;29017;51.514;-0.178;2022-08-01T13:13:50;101370.59;;;25.16;57.17
43420;BME280;29017;51.514;-0.178;2022-08-01T13:16:22;101370.25;;;25.24;56.45
43420;BME280;29017;51.514;-0.178;2022-08-01T13:19:04;101360.75;;;25.33;56.48
43420;BME280;29017;51.514;-0.178;2022-08-01T13:21:31;101362.50;;;25.39;55.09
43420;BME280;29017;51.514;-0.178;2022-08-01T13:24:24;101366.34;;;25.43;55.36
43420;BME280;29017;51.514;-0.178;2022-08-01T13:27:20;101365.88;;;25.46;54.82
43420;BME280;29017;51.514;-0.178;2022-08-01T13:29:47;101365.88;;;25.46;53.86
43420;BME280;29017;51.514;-0.178;2022-08-01T13:32:17;101358.72;;;25.40;54.53
43420;BME280;29017;51.514;-0.178;2022-08-01T13:35:07;101361.69;;;25.39;54.27
43420;BME280;29017;51.514;-0.178;2022-08-01T13:37:36;101360.03;;;25.38;53.74